Kingston, Rhode Island
Current Conditions -  °F | °C
As of 2:53 AM on Saturday 25 Oct 2014 (Local Time) from KUUU Reporting Station
Clear Clear  
Wind Chill: 50°   Ceiling: Unl
Heat Index: 50°   Visibility: 10mi
Dew Point: 42°   Wind: 7mph
Humidity: 74%   Direction: 330°NNW
Pressure: 29.76"   Gusts: NA
Location:  41.48°N, 71.52°W
Report Text: KUUU 250653Z AUTO 33006KT 10SM CLR 10/06 A2976 RMK AO2 SLP077 T01000056
Loading
Personal Weather Stations






























Interactive Weather Map
Tropical Storm Tracking
New forecast layout! Learn more

10-Day Weather Forecast

Advertisements
Track Severe Weather on mobile